createdAt,value
2022-08-19T00:02:28.034Z,14.8
2022-08-19T00:07:26.397Z,14.7
2022-08-19T00:12:24.353Z,14.6
2022-08-19T00:17:22.439Z,14.3
2022-08-19T00:22:24.172Z,14.1
2022-08-19T00:27:25.449Z,14
2022-08-19T00:32:19.524Z,13.9
2022-08-19T00:37:17.667Z,13.8
2022-08-19T00:42:15.913Z,13.8
2022-08-19T00:47:14.469Z,13.8
2022-08-19T00:52:12.494Z,13.7
2022-08-19T00:57:10.578Z,13.6
2022-08-19T01:02:08.732Z,13.6
2022-08-19T01:07:06.973Z,13.6
2022-08-19T01:12:05.240Z,13.6
2022-08-19T01:17:03.636Z,13.6
2022-08-19T01:22:01.417Z,13.5
2022-08-19T01:26:59.437Z,13.5
2022-08-19T01:31:57.620Z,13.4
2022-08-19T01:36:55.857Z,13.4
2022-08-19T01:41:54.020Z,13.5
2022-08-19T01:46:51.814Z,13.5
2022-08-19T01:51:49.946Z,13.3
2022-08-19T01:56:47.967Z,13.2
2022-08-19T02:01:46.161Z,13.2
2022-08-19T02:06:44.375Z,13.1
2022-08-19T02:11:45.926Z,13
2022-08-19T02:16:43.450Z,13
2022-08-19T02:21:41.581Z,12.9
2022-08-19T02:26:39.722Z,12.9
2022-08-19T02:31:37.982Z,12.8
2022-08-19T02:36:36.296Z,12.8
2022-08-19T02:41:34.521Z,12.7
2022-08-19T02:46:32.661Z,12.7
2022-08-19T02:51:31.815Z,12.6
2022-08-19T02:56:29.590Z,12.6
2022-08-19T03:01:27.929Z,12.5
2022-08-19T03:06:25.973Z,12.6
2022-08-19T03:11:24.106Z,12.6
2022-08-19T03:16:22.218Z,12.6
2022-08-19T03:21:20.242Z,12.5
2022-08-19T03:26:18.321Z,12.5
2022-08-19T03:31:42.211Z,12.5
2022-08-19T03:36:14.554Z,12.5
2022-08-19T03:41:12.950Z,12.5
2022-08-19T03:46:10.978Z,12.6
2022-08-19T03:51:09.237Z,12.7
2022-08-19T03:56:07.677Z,13.1
2022-08-19T04:01:06.244Z,13.6
2022-08-19T04:06:04.645Z,13.9
2022-08-19T04:11:03.194Z,14.2
2022-08-19T04:16:02.062Z,15.1
2022-08-19T04:21:01.377Z,16.5
2022-08-19T04:26:00.979Z,17.6
2022-08-19T04:31:00.157Z,19
2022-08-19T04:35:58.724Z,20
2022-08-19T04:40:57.311Z,20.3
2022-08-19T04:45:56.435Z,20.9
2022-08-19T04:50:54.357Z,21.5
2022-08-19T04:55:52.651Z,22
2022-08-19T05:00:51.534Z,22.9
2022-08-19T05:05:50.152Z,23.4
2022-08-19T05:10:48.668Z,23.6
2022-08-19T05:15:47.263Z,24
2022-08-19T05:20:45.746Z,24.6
2022-08-19T05:25:44.022Z,25
2022-08-19T05:30:47.395Z,25.5
2022-08-19T05:35:41.027Z,25.9
2022-08-19T05:40:39.676Z,26.1
2022-08-19T05:45:42.039Z,26.9
2022-08-19T05:50:39.493Z,27.1
2022-08-19T05:55:37.662Z,27.5
2022-08-19T06:00:36.186Z,28
2022-08-19T06:05:42.224Z,28.9
2022-08-19T06:10:33.795Z,29.9
2022-08-19T06:15:31.913Z,30
2022-08-19T06:20:54.313Z,30.4
2022-08-19T06:25:30.505Z,31.1
2022-08-19T06:30:27.306Z,31.7
2022-08-19T06:35:25.472Z,31.5
2022-08-19T06:40:23.736Z,31.9
2022-08-19T06:45:24.772Z,32.4
2022-08-19T06:50:21.053Z,33
2022-08-19T06:55:19.360Z,33.1
2022-08-19T07:00:17.898Z,33.7
2022-08-19T07:05:16.641Z,33.9
2022-08-19T07:10:14.727Z,34.7
2022-08-19T07:15:13.352Z,35
2022-08-19T07:20:11.997Z,35.8
2022-08-19T07:25:09.837Z,34.8
2022-08-19T07:30:11.783Z,35.5
2022-08-19T07:35:07.106Z,36.5
2022-08-19T07:40:05.453Z,37
2022-08-19T07:45:04.594Z,37.7
2022-08-19T07:50:05.746Z,38
2022-08-19T07:55:03.566Z,37.7
2022-08-19T08:00:01.695Z,38.5
2022-08-19T08:04:59.726Z,38.1
2022-08-19T08:09:58.476Z,38.6
2022-08-19T08:14:57.824Z,40.1
2022-08-19T08:19:56.062Z,39.7
2022-08-19T08:24:54.333Z,40.6
2022-08-19T08:29:53.283Z,41.5
2022-08-19T08:34:52.518Z,41.8
2022-08-19T08:39:50.188Z,41.4
2022-08-19T08:44:48.435Z,42.5
2022-08-19T08:49:46.767Z,42
2022-08-19T08:54:49.292Z,43.9
2022-08-19T08:59:44.675Z,43.4
2022-08-19T09:04:42.584Z,43.3
2022-08-19T09:09:42.056Z,44.3
2022-08-19T09:14:52.663Z,43.6
2022-08-19T09:19:37.346Z,43.7
2022-08-19T09:24:35.734Z,43.3
2022-08-19T09:29:33.503Z,42.4
2022-08-19T09:34:31.003Z,42.3
2022-08-19T09:39:35.757Z,42.9
2022-08-19T09:44:27.713Z,42.5
2022-08-19T09:49:24.944Z,42.2
2022-08-19T09:54:23.602Z,42.2
2022-08-19T09:59:24.337Z,42.8
2022-08-19T10:04:22.163Z,42.8
2022-08-19T10:14:17.023Z,43
2022-08-19T10:19:15.391Z,42.6
2022-08-19T10:24:13.948Z,43.1
2022-08-19T10:29:12.233Z,43.3
2022-08-19T10:34:12.182Z,40
2022-08-19T10:39:07.618Z,42
2022-08-19T10:44:06.207Z,42.3
2022-08-19T10:49:03.824Z,42.2
2022-08-19T10:54:01.500Z,41.9
2022-08-19T10:58:59.214Z,42.5
2022-08-19T11:03:57.168Z,42.8
2022-08-19T11:08:55.756Z,42.4
2022-08-19T11:13:53.343Z,43.3
2022-08-19T11:18:50.895Z,41.5
2022-08-19T11:23:48.565Z,42.2
2022-08-19T11:28:46.939Z,42.7
2022-08-19T11:33:47.173Z,42.8
2022-08-19T11:38:43.859Z,42.6
2022-08-19T11:43:41.807Z,43.1
2022-08-19T11:48:39.901Z,43.4
2022-08-19T11:53:37.546Z,41
2022-08-19T11:58:35.460Z,42.5
2022-08-19T12:03:33.629Z,42.5
2022-08-19T12:08:32.043Z,42.7
2022-08-19T12:13:29.710Z,42.3
2022-08-19T12:18:27.988Z,40.9
2022-08-19T12:23:25.463Z,42
2022-08-19T12:28:23.313Z,42.2
2022-08-19T12:33:21.312Z,41.7
2022-08-19T12:38:19.594Z,41.7
2022-08-19T12:43:17.443Z,41.3
2022-08-19T12:48:33.062Z,41.3
2022-08-19T12:53:13.655Z,41.2
2022-08-19T12:58:11.157Z,40.6
2022-08-19T13:03:08.449Z,40.1
2022-08-19T13:08:06.550Z,40
2022-08-19T13:13:03.808Z,39.6
2022-08-19T13:18:01.196Z,38.9
2022-08-19T13:22:59.434Z,38.4
2022-08-19T13:27:57.328Z,38.1
2022-08-19T13:32:55.659Z,37.6
2022-08-19T13:37:53.724Z,37.2
2022-08-19T13:42:51.080Z,36.5
2022-08-19T13:47:48.836Z,36.1
2022-08-19T13:52:46.631Z,35.3
2022-08-19T13:57:44.162Z,34.9
2022-08-19T14:02:41.550Z,34.7
2022-08-19T14:07:39.339Z,33.8
2022-08-19T14:12:36.817Z,33.4
2022-08-19T14:17:34.516Z,32.9
2022-08-19T14:22:32.499Z,32.9
2022-08-19T14:27:30.271Z,32.7
2022-08-19T14:32:28.004Z,32.4
2022-08-19T14:37:25.857Z,31.8
2022-08-19T14:42:23.675Z,31.5
2022-08-19T14:47:22.204Z,31.5
2022-08-19T14:52:20.360Z,31.3
2022-08-19T14:57:18.736Z,31.3
2022-08-19T15:02:20.332Z,31
2022-08-19T15:07:15.300Z,30.9
2022-08-19T15:12:13.494Z,30.5
2022-08-19T15:17:11.272Z,30
2022-08-19T15:22:09.073Z,29.5
2022-08-19T15:27:06.539Z,29.1
2022-08-19T15:32:04.312Z,28.8
2022-08-19T15:37:02.318Z,28.4
2022-08-19T15:42:00.566Z,28.1
2022-08-19T15:46:58.519Z,27.8
2022-08-19T15:51:56.591Z,27.5
2022-08-19T15:56:57.577Z,27.3
2022-08-19T16:01:56.680Z,27.1
2022-08-19T16:06:53.739Z,26.8
2022-08-19T16:11:56.396Z,26.5
2022-08-19T16:16:49.451Z,26.1
2022-08-19T16:21:47.695Z,25.7
2022-08-19T16:26:45.500Z,25.4
2022-08-19T16:31:43.585Z,25.1
2022-08-19T16:36:41.965Z,24.7
2022-08-19T16:41:39.668Z,24.3
2022-08-19T16:46:37.744Z,23.9
2022-08-19T16:51:35.553Z,23.6
2022-08-19T16:56:33.759Z,23.3
2022-08-19T17:01:32.051Z,23
2022-08-19T17:06:30.202Z,22.8
2022-08-19T17:11:28.142Z,22.5
2022-08-19T17:16:26.207Z,22.2
2022-08-19T17:21:24.055Z,22
2022-08-19T17:26:22.011Z,21.7
2022-08-19T17:31:20.036Z,21.3
2022-08-19T17:36:17.966Z,21.1
2022-08-19T17:41:16.169Z,21.2
2022-08-19T17:46:17.634Z,21.4
2022-08-19T17:51:13.295Z,21.6
2022-08-19T17:56:11.547Z,21.6
2022-08-19T18:01:09.724Z,21.6
2022-08-19T18:06:08.302Z,21.6
2022-08-19T18:11:06.366Z,21.6
2022-08-19T18:16:04.679Z,21.5
2022-08-19T18:21:02.689Z,21.4
2022-08-19T18:26:00.976Z,21.3
2022-08-19T18:30:58.977Z,21
2022-08-19T18:35:57.248Z,21.6
2022-08-19T18:40:55.840Z,22.5
2022-08-19T18:45:54.655Z,22.8
2022-08-19T18:50:52.774Z,22.6
2022-08-19T18:55:50.305Z,22
2022-08-19T19:00:47.964Z,21.4
2022-08-19T19:05:45.489Z,20.8
2022-08-19T19:10:43.144Z,20.6
2022-08-19T19:15:41.477Z,20.4
2022-08-19T19:20:39.190Z,20.4
2022-08-19T19:25:49.552Z,20.4
2022-08-19T19:30:36.088Z,20.3
2022-08-19T19:35:34.344Z,20.2
2022-08-19T19:40:32.423Z,20
2022-08-19T19:45:30.339Z,19.9
2022-08-19T19:50:28.485Z,19.8
2022-08-19T19:55:26.868Z,20.3
2022-08-19T20:00:25.770Z,20.4
2022-08-19T20:05:23.857Z,20
2022-08-19T20:10:21.718Z,19.8
2022-08-19T20:15:19.820Z,19.5
2022-08-19T20:20:17.892Z,19.6
2022-08-19T20:25:16.270Z,19.6
2022-08-19T20:30:19.366Z,19.5
2022-08-19T20:35:12.277Z,19.3
2022-08-19T20:40:10.158Z,19
2022-08-19T20:45:08.004Z,18.9
2022-08-19T20:50:06.108Z,18.7
2022-08-19T20:55:04.319Z,18.7
2022-08-19T21:00:02.583Z,18.8
2022-08-19T21:05:01.041Z,18.8
2022-08-19T21:09:59.190Z,18.7
2022-08-19T21:14:57.157Z,18.5
2022-08-19T21:19:55.372Z,18.4
2022-08-19T21:24:53.552Z,18.3
2022-08-19T21:29:51.393Z,18.2
2022-08-19T21:34:49.379Z,18.2
2022-08-19T21:39:47.493Z,18.2
2022-08-19T21:44:45.523Z,18.1
2022-08-19T21:49:43.689Z,18.2
2022-08-19T21:54:42.504Z,18.1
2022-08-19T21:59:41.245Z,18
2022-08-19T22:04:38.249Z,17.9
2022-08-19T22:09:36.291Z,18.1
2022-08-19T22:14:34.586Z,18.4
2022-08-19T22:19:32.710Z,18.4
2022-08-19T22:24:30.636Z,18.2
2022-08-19T22:29:33.161Z,18
2022-08-19T22:34:26.827Z,18.1
2022-08-19T22:39:25.190Z,18.3
2022-08-19T22:44:23.358Z,18.2
2022-08-19T22:49:21.256Z,18
2022-08-19T22:54:19.119Z,17.7
2022-08-19T22:59:17.094Z,17.9
2022-08-19T23:04:15.154Z,17.7
2022-08-19T23:09:16.826Z,17.7
2022-08-19T23:14:11.487Z,17.9
2022-08-19T23:19:09.572Z,17.8
2022-08-19T23:24:07.653Z,17.7
2022-08-19T23:29:05.715Z,17.6
2022-08-19T23:34:03.820Z,17.6
2022-08-19T23:39:01.811Z,17.9
2022-08-19T23:44:00.397Z,17.9
2022-08-19T23:48:57.835Z,17.5
2022-08-19T23:53:55.473Z,16.4
2022-08-19T23:58:53.341Z,17.2
